sensor_id;sensor_type;location;lat;lon;timestamp;temperature;humidity
7317;DHT22;3699;51.462;6.696;2022-08-05T00:01:44;19.90;99.90
7317;DHT22;3699;51.462;6.696;2022-08-05T00:04:13;19.90;99.90
7317;DHT22;3699;51.462;6.696;2022-08-05T00:06:39;20.00;99.90
7317;DHT22;3699;51.462;6.696;2022-08-05T00:09:06;20.00;99.90
7317;DHT22;3699;51.462;6.696;2022-08-05T00:11:33;20.00;99.90
7317;DHT22;3699;51.462;6.696;2022-08-05T00:13:59;20.00;99.90
7317;DHT22;3699;51.462;6.696;2022-08-05T00:16:26;20.00;99.90
7317;DHT22;3699;51.462;6.696;2022-08-05T00:18:53;20.00;99.90
7317;DHT22;3699;51.462;6.696;2022-08-05T00:21:21;20.00;99.90
7317;DHT22;3699;51.462;6.696;2022-08-05T00:23:47;19.90;99.90
7317;DHT22;3699;51.462;6.696;2022-08-05T00:26:15;19.90;99.90
7317;DHT22;3699;51.462;6.696;2022-08-05T00:28:42;19.90;99.90
7317;DHT22;3699;51.462;6.696;2022-08-05T00:31:09;19.90;99.90
7317;DHT22;3699;51.462;6.696;2022-08-05T00:33:36;19.90;99.90
7317;DHT22;3699;51.462;6.696;2022-08-05T00:36:03;20.00;99.90
7317;DHT22;3699;51.462;6.696;2022-08-05T00:38:31;19.90;99.90
7317;DHT22;3699;51.462;6.696;2022-08-05T00:40:58;19.90;99.90
7317;DHT22;3699;51.462;6.696;2022-08-05T00:43:25;19.90;99.90
7317;DHT22;3699;51.462;6.696;2022-08-05T00:45:53;19.90;99.90
7317;DHT22;3699;51.462;6.696;2022-08-05T00:48:21;19.90;99.90
7317;DHT22;3699;51.462;6.696;2022-08-05T00:50:50;19.90;99.90
7317;DHT22;3699;51.462;6.696;2022-08-05T00:53:19;19.90;99.90
7317;DHT22;3699;51.462;6.696;2022-08-05T00:55:47;19.80;99.90
7317;DHT22;3699;51.462;6.696;2022-08-05T00:58:15;19.80;99.90
7317;DHT22;3699;51.462;6.696;2022-08-05T01:00:42;19.80;99.90
7317;DHT22;3699;51.462;6.696;2022-08-05T01:03:10;19.80;99.90
7317;DHT22;3699;51.462;6.696;2022-08-05T01:05:37;19.70;99.90
7317;DHT22;3699;51.462;6.696;2022-08-05T01:08:04;19.70;99.90
7317;DHT22;3699;51.462;6.696;2022-08-05T01:10:35;19.70;99.90
7317;DHT22;3699;51.462;6.696;2022-08-05T01:13:09;19.70;99.90
7317;DHT22;3699;51.462;6.696;2022-08-05T01:15:42;19.60;99.90
7317;DHT22;3699;51.462;6.696;2022-08-05T01:18:14;19.50;99.90
7317;DHT22;3699;51.462;6.696;2022-08-05T01:20:52;19.40;99.90
7317;DHT22;3699;51.462;6.696;2022-08-05T01:23:39;19.40;99.90
7317;DHT22;3699;51.462;6.696;2022-08-05T01:26:47;19.40;99.90
7317;DHT22;3699;51.462;6.696;2022-08-05T01:29:28;19.40;99.90
7317;DHT22;3699;51.462;6.696;2022-08-05T01:32:00;19.30;99.90
7317;DHT22;3699;51.462;6.696;2022-08-05T01:34:30;19.30;99.90
7317;DHT22;3699;51.462;6.696;2022-08-05T01:37:04;19.30;99.90
7317;DHT22;3699;51.462;6.696;2022-08-05T01:39:34;19.30;99.90
7317;DHT22;3699;51.462;6.696;2022-08-05T01:42:03;19.30;99.90
7317;DHT22;3699;51.462;6.696;2022-08-05T01:44:33;19.30;99.90
7317;DHT22;3699;51.462;6.696;2022-08-05T01:47:01;19.30;99.90
7317;DHT22;3699;51.462;6.696;2022-08-05T01:49:29;19.30;99.90
7317;DHT22;3699;51.462;6.696;2022-08-05T01:51:58;19.30;99.90
7317;DHT22;3699;51.462;6.696;2022-08-05T01:54:36;19.30;99.90
7317;DHT22;3699;51.462;6.696;2022-08-05T01:57:05;19.30;99.90
7317;DHT22;3699;51.462;6.696;2022-08-05T01:59:37;19.30;99.90
7317;DHT22;3699;51.462;6.696;2022-08-05T02:02:05;19.30;99.90
7317;DHT22;3699;51.462;6.696;2022-08-05T02:04:35;19.30;99.90
7317;DHT22;3699;51.462;6.696;2022-08-05T02:07:03;19.40;99.90
7317;DHT22;3699;51.462;6.696;2022-08-05T02:09:30;19.40;99.90
7317;DHT22;3699;51.462;6.696;2022-08-05T02:12:02;19.40;99.90
7317;DHT22;3699;51.462;6.696;2022-08-05T02:14:33;19.50;99.90
7317;DHT22;3699;51.462;6.696;2022-08-05T02:17:06;19.50;99.90
7317;DHT22;3699;51.462;6.696;2022-08-05T02:19:37;19.50;99.90
7317;DHT22;3699;51.462;6.696;2022-08-05T02:22:20;19.60;99.90
7317;DHT22;3699;51.462;6.696;2022-08-05T02:24:50;19.60;99.90
7317;DHT22;3699;51.462;6.696;2022-08-05T02:27:19;19.60;99.90
7317;DHT22;3699;51.462;6.696;2022-08-05T02:29:47;19.60;99.90
7317;DHT22;3699;51.462;6.696;2022-08-05T02:32:19;19.60;99.90
7317;DHT22;3699;51.462;6.696;2022-08-05T02:34:48;19.70;99.90
7317;DHT22;3699;51.462;6.696;2022-08-05T02:37:15;19.70;99.90
7317;DHT22;3699;51.462;6.696;2022-08-05T02:39:42;19.60;99.90
7317;DHT22;3699;51.462;6.696;2022-08-05T02:42:12;19.60;99.90
7317;DHT22;3699;51.462;6.696;2022-08-05T02:44:39;19.60;99.90
7317;DHT22;3699;51.462;6.696;2022-08-05T02:47:08;19.50;99.90
7317;DHT22;3699;51.462;6.696;2022-08-05T02:49:39;19.50;99.90
7317;DHT22;3699;51.462;6.696;2022-08-05T02:52:09;19.50;99.90
7317;DHT22;3699;51.462;6.696;2022-08-05T02:54:38;19.50;99.90
7317;DHT22;3699;51.462;6.696;2022-08-05T02:57:09;19.50;99.90
7317;DHT22;3699;51.462;6.696;2022-08-05T02:59:36;19.50;99.90
7317;DHT22;3699;51.462;6.696;2022-08-05T03:02:03;19.40;99.90
7317;DHT22;3699;51.462;6.696;2022-08-05T03:04:32;19.40;99.90
7317;DHT22;3699;51.462;6.696;2022-08-05T03:07:00;19.30;99.90
7317;DHT22;3699;51.462;6.696;2022-08-05T03:09:27;19.30;99.90
7317;DHT22;3699;51.462;6.696;2022-08-05T03:11:54;19.20;99.90
7317;DHT22;3699;51.462;6.696;2022-08-05T03:14:21;19.10;99.90
7317;DHT22;3699;51.462;6.696;2022-08-05T03:16:47;19.10;99.90
7317;DHT22;3699;51.462;6.696;2022-08-05T03:19:14;19.10;99.90
7317;DHT22;3699;51.462;6.696;2022-08-05T03:21:41;19.00;99.90
7317;DHT22;3699;51.462;6.696;2022-08-05T03:24:09;19.00;99.90
7317;DHT22;3699;51.462;6.696;2022-08-05T03:26:36;19.00;99.90
7317;DHT22;3699;51.462;6.696;2022-08-05T03:29:03;19.00;99.90
7317;DHT22;3699;51.462;6.696;2022-08-05T03:31:30;19.10;99.90
7317;DHT22;3699;51.462;6.696;2022-08-05T03:33:58;19.10;99.90
7317;DHT22;3699;51.462;6.696;2022-08-05T03:36:25;19.20;99.90
7317;DHT22;3699;51.462;6.696;2022-08-05T03:38:52;19.20;99.90
7317;DHT22;3699;51.462;6.696;2022-08-05T03:41:20;19.20;99.90
7317;DHT22;3699;51.462;6.696;2022-08-05T03:43:47;19.20;99.90
7317;DHT22;3699;51.462;6.696;2022-08-05T03:46:13;19.20;99.90
7317;DHT22;3699;51.462;6.696;2022-08-05T03:48:40;19.30;99.90
7317;DHT22;3699;51.462;6.696;2022-08-05T03:51:12;19.30;99.90
7317;DHT22;3699;51.462;6.696;2022-08-05T03:53:43;19.30;99.90
7317;DHT22;3699;51.462;6.696;2022-08-05T03:56:19;19.30;99.90
7317;DHT22;3699;51.462;6.696;2022-08-05T03:58:50;19.30;99.90
7317;DHT22;3699;51.462;6.696;2022-08-05T04:01:20;19.30;99.90
7317;DHT22;3699;51.462;6.696;2022-08-05T04:03:49;19.30;99.90
7317;DHT22;3699;51.462;6.696;2022-08-05T04:06:18;19.20;99.90
7317;DHT22;3699;51.462;6.696;2022-08-05T04:08:45;19.20;99.90
7317;DHT22;3699;51.462;6.696;2022-08-05T04:11:12;19.20;99.90
7317;DHT22;3699;51.462;6.696;2022-08-05T04:13:40;19.20;99.90
7317;DHT22;3699;51.462;6.696;2022-08-05T04:16:08;19.20;99.90
7317;DHT22;3699;51.462;6.696;2022-08-05T04:18:35;19.20;99.90
7317;DHT22;3699;51.462;6.696;2022-08-05T04:21:04;19.20;99.90
7317;DHT22;3699;51.462;6.696;2022-08-05T04:23:32;19.20;99.90
7317;DHT22;3699;51.462;6.696;2022-08-05T04:25:59;19.10;99.90
7317;DHT22;3699;51.462;6.696;2022-08-05T04:28:26;19.10;99.90
7317;DHT22;3699;51.462;6.696;2022-08-05T04:30:53;19.10;99.90
7317;DHT22;3699;51.462;6.696;2022-08-05T04:33:21;19.10;99.90
7317;DHT22;3699;51.462;6.696;2022-08-05T04:35:48;19.10;99.90
7317;DHT22;3699;51.462;6.696;2022-08-05T04:38:15;19.10;99.90
7317;DHT22;3699;51.462;6.696;2022-08-05T04:40:41;19.10;99.90
7317;DHT22;3699;51.462;6.696;2022-08-05T04:43:08;19.10;99.90
7317;DHT22;3699;51.462;6.696;2022-08-05T04:45:35;19.10;99.90
7317;DHT22;3699;51.462;6.696;2022-08-05T04:48:04;19.20;99.90
7317;DHT22;3699;51.462;6.696;2022-08-05T04:50:37;19.20;99.90
7317;DHT22;3699;51.462;6.696;2022-08-05T04:53:05;19.20;99.90
7317;DHT22;3699;51.462;6.696;2022-08-05T04:55:32;19.20;99.90
7317;DHT22;3699;51.462;6.696;2022-08-05T04:57:59;19.20;99.90
7317;DHT22;3699;51.462;6.696;2022-08-05T05:00:26;19.20;99.90
7317;DHT22;3699;51.462;6.696;2022-08-05T05:02:52;19.10;99.90
7317;DHT22;3699;51.462;6.696;2022-08-05T05:05:19;19.10;99.90
7317;DHT22;3699;51.462;6.696;2022-08-05T05:07:47;19.10;99.90
7317;DHT22;3699;51.462;6.696;2022-08-05T05:10:14;19.10;99.90
7317;DHT22;3699;51.462;6.696;2022-08-05T05:12:40;19.10;99.90
7317;DHT22;3699;51.462;6.696;2022-08-05T05:15:08;19.10;99.90
7317;DHT22;3699;51.462;6.696;2022-08-05T05:17:39;19.10;99.90
7317;DHT22;3699;51.462;6.696;2022-08-05T05:20:07;19.00;99.90
7317;DHT22;3699;51.462;6.696;2022-08-05T05:22:34;19.00;99.90
7317;DHT22;3699;51.462;6.696;2022-08-05T05:25:03;19.00;99.90
7317;DHT22;3699;51.462;6.696;2022-08-05T05:27:31;19.00;99.90
7317;DHT22;3699;51.462;6.696;2022-08-05T05:29:58;19.00;99.90
7317;DHT22;3699;51.462;6.696;2022-08-05T05:32:25;19.10;99.90
7317;DHT22;3699;51.462;6.696;2022-08-05T05:34:52;19.00;99.90
7317;DHT22;3699;51.462;6.696;2022-08-05T05:37:18;19.00;99.90
7317;DHT22;3699;51.462;6.696;2022-08-05T05:39:45;19.00;99.90
7317;DHT22;3699;51.462;6.696;2022-08-05T05:42:13;19.00;99.90
7317;DHT22;3699;51.462;6.696;2022-08-05T05:44:40;19.00;99.90
7317;DHT22;3699;51.462;6.696;2022-08-05T05:47:06;18.90;99.90
7317;DHT22;3699;51.462;6.696;2022-08-05T05:49:33;18.90;99.90
7317;DHT22;3699;51.462;6.696;2022-08-05T05:52:00;18.80;99.90
7317;DHT22;3699;51.462;6.696;2022-08-05T05:54:27;18.80;99.90
7317;DHT22;3699;51.462;6.696;2022-08-05T05:56:53;18.70;99.90
7317;DHT22;3699;51.462;6.696;2022-08-05T05:59:21;18.60;99.90
7317;DHT22;3699;51.462;6.696;2022-08-05T06:01:49;18.60;99.90
7317;DHT22;3699;51.462;6.696;2022-08-05T06:04:15;18.60;99.90
7317;DHT22;3699;51.462;6.696;2022-08-05T06:06:43;18.50;99.90
7317;DHT22;3699;51.462;6.696;2022-08-05T06:09:10;18.50;99.90
7317;DHT22;3699;51.462;6.696;2022-08-05T06:11:37;18.50;99.90
7317;DHT22;3699;51.462;6.696;2022-08-05T06:14:03;18.50;99.90
7317;DHT22;3699;51.462;6.696;2022-08-05T06:16:31;18.40;99.90
7317;DHT22;3699;51.462;6.696;2022-08-05T06:18:58;18.40;99.90
7317;DHT22;3699;51.462;6.696;2022-08-05T06:21:25;18.40;99.90
7317;DHT22;3699;51.462;6.696;2022-08-05T06:23:52;18.40;99.90
7317;DHT22;3699;51.462;6.696;2022-08-05T06:26:18;18.40;99.90
7317;DHT22;3699;51.462;6.696;2022-08-05T06:28:45;18.40;99.90
7317;DHT22;3699;51.462;6.696;2022-08-05T06:31:12;18.40;99.90
7317;DHT22;3699;51.462;6.696;2022-08-05T06:33:40;18.30;99.90
7317;DHT22;3699;51.462;6.696;2022-08-05T06:36:07;18.30;99.90
7317;DHT22;3699;51.462;6.696;2022-08-05T06:38:33;18.40;99.90
7317;DHT22;3699;51.462;6.696;2022-08-05T06:41:00;18.50;99.90
7317;DHT22;3699;51.462;6.696;2022-08-05T06:43:27;18.50;99.90
7317;DHT22;3699;51.462;6.696;2022-08-05T06:45:54;18.60;99.90
7317;DHT22;3699;51.462;6.696;2022-08-05T06:48:21;18.60;99.90
7317;DHT22;3699;51.462;6.696;2022-08-05T06:50:49;18.60;99.90
7317;DHT22;3699;51.462;6.696;2022-08-05T06:53:15;18.60;99.90
7317;DHT22;3699;51.462;6.696;2022-08-05T06:55:42;18.70;99.90
7317;DHT22;3699;51.462;6.696;2022-08-05T06:58:09;18.60;99.90
7317;DHT22;3699;51.462;6.696;2022-08-05T07:00:35;18.60;99.90
7317;DHT22;3699;51.462;6.696;2022-08-05T07:03:02;18.60;99.90
7317;DHT22;3699;51.462;6.696;2022-08-05T07:05:29;18.60;99.90
7317;DHT22;3699;51.462;6.696;2022-08-05T07:07:57;18.60;99.90
7317;DHT22;3699;51.462;6.696;2022-08-05T07:10:24;18.60;99.90
7317;DHT22;3699;51.462;6.696;2022-08-05T07:12:50;18.50;99.90
7317;DHT22;3699;51.462;6.696;2022-08-05T07:15:35;18.50;99.90
7317;DHT22;3699;51.462;6.696;2022-08-05T07:18:15;18.50;99.90
7317;DHT22;3699;51.462;6.696;2022-08-05T07:20:42;18.40;99.90
7317;DHT22;3699;51.462;6.696;2022-08-05T07:23:10;18.40;99.90
7317;DHT22;3699;51.462;6.696;2022-08-05T07:25:37;18.30;99.90
7317;DHT22;3699;51.462;6.696;2022-08-05T07:28:03;18.30;99.90
7317;DHT22;3699;51.462;6.696;2022-08-05T07:30:31;18.30;99.90
7317;DHT22;3699;51.462;6.696;2022-08-05T07:32:57;18.20;99.90
7317;DHT22;3699;51.462;6.696;2022-08-05T07:35:24;18.10;99.90
7317;DHT22;3699;51.462;6.696;2022-08-05T07:37:51;18.10;99.90
7317;DHT22;3699;51.462;6.696;2022-08-05T07:40:19;18.10;99.90
7317;DHT22;3699;51.462;6.696;2022-08-05T07:42:47;18.10;99.90
7317;DHT22;3699;51.462;6.696;2022-08-05T07:45:13;18.10;99.90
7317;DHT22;3699;51.462;6.696;2022-08-05T07:47:41;18.10;99.90
7317;DHT22;3699;51.462;6.696;2022-08-05T07:50:08;18.10;99.90
7317;DHT22;3699;51.462;6.696;2022-08-05T07:52:37;18.10;99.90
7317;DHT22;3699;51.462;6.696;2022-08-05T07:55:05;18.20;99.90
7317;DHT22;3699;51.462;6.696;2022-08-05T07:57:33;18.20;99.90
7317;DHT22;3699;51.462;6.696;2022-08-05T08:00:00;18.20;99.90
7317;DHT22;3699;51.462;6.696;2022-08-05T08:02:28;18.20;99.90
7317;DHT22;3699;51.462;6.696;2022-08-05T08:04:55;18.20;99.90
7317;DHT22;3699;51.462;6.696;2022-08-05T08:07:21;18.20;99.90
7317;DHT22;3699;51.462;6.696;2022-08-05T08:09:49;18.20;99.90
7317;DHT22;3699;51.462;6.696;2022-08-05T08:12:16;18.10;99.90
7317;DHT22;3699;51.462;6.696;2022-08-05T08:14:44;18.20;99.90
7317;DHT22;3699;51.462;6.696;2022-08-05T08:17:11;18.20;99.90
7317;DHT22;3699;51.462;6.696;2022-08-05T08:19:38;18.20;99.90
7317;DHT22;3699;51.462;6.696;2022-08-05T08:22:06;18.20;99.90
7317;DHT22;3699;51.462;6.696;2022-08-05T08:24:33;18.30;99.90
7317;DHT22;3699;51.462;6.696;2022-08-05T08:27:00;18.30;99.90
7317;DHT22;3699;51.462;6.696;2022-08-05T08:29:27;18.40;99.90
7317;DHT22;3699;51.462;6.696;2022-08-05T08:31:55;18.40;99.90
7317;DHT22;3699;51.462;6.696;2022-08-05T08:34:23;18.40;99.90
7317;DHT22;3699;51.462;6.696;2022-08-05T08:36:50;18.40;99.90
7317;DHT22;3699;51.462;6.696;2022-08-05T08:39:17;18.50;99.90
7317;DHT22;3699;51.462;6.696;2022-08-05T08:41:47;18.50;99.90
7317;DHT22;3699;51.462;6.696;2022-08-05T08:44:18;18.50;99.90
7317;DHT22;3699;51.462;6.696;2022-08-05T08:46:46;18.60;99.90
7317;DHT22;3699;51.462;6.696;2022-08-05T08:49:15;18.60;99.90
7317;DHT22;3699;51.462;6.696;2022-08-05T08:51:53;18.70;99.90
7317;DHT22;3699;51.462;6.696;2022-08-05T08:54:20;18.70;99.90
7317;DHT22;3699;51.462;6.696;2022-08-05T08:56:47;18.70;99.90
7317;DHT22;3699;51.462;6.696;2022-08-05T08:59:14;18.80;99.90
7317;DHT22;3699;51.462;6.696;2022-08-05T09:01:43;18.90;99.90
7317;DHT22;3699;51.462;6.696;2022-08-05T09:04:13;18.90;99.90
7317;DHT22;3699;51.462;6.696;2022-08-05T09:06:41;19.00;99.90
7317;DHT22;3699;51.462;6.696;2022-08-05T09:09:08;19.10;99.90
7317;DHT22;3699;51.462;6.696;2022-08-05T09:11:34;19.20;99.90
7317;DHT22;3699;51.462;6.696;2022-08-05T09:14:02;19.30;99.90
7317;DHT22;3699;51.462;6.696;2022-08-05T09:16:29;19.40;99.90
7317;DHT22;3699;51.462;6.696;2022-08-05T09:18:56;19.60;99.90
7317;DHT22;3699;51.462;6.696;2022-08-05T09:21:24;19.80;99.90
7317;DHT22;3699;51.462;6.696;2022-08-05T09:24:02;20.00;99.90
7317;DHT22;3699;51.462;6.696;2022-08-05T09:26:29;20.00;99.90
7317;DHT22;3699;51.462;6.696;2022-08-05T09:28:59;20.10;99.90
7317;DHT22;3699;51.462;6.696;2022-08-05T09:31:26;20.20;99.90
7317;DHT22;3699;51.462;6.696;2022-08-05T09:33:54;20.20;99.90
7317;DHT22;3699;51.462;6.696;2022-08-05T09:36:36;20.30;99.90
7317;DHT22;3699;51.462;6.696;2022-08-05T09:39:06;20.30;99.90
7317;DHT22;3699;51.462;6.696;2022-08-05T09:41:33;20.40;99.90
7317;DHT22;3699;51.462;6.696;2022-08-05T09:44:00;20.60;99.90
7317;DHT22;3699;51.462;6.696;2022-08-05T09:46:29;20.80;99.90
7317;DHT22;3699;51.462;6.696;2022-08-05T09:48:57;21.10;99.90
7317;DHT22;3699;51.462;6.696;2022-08-05T09:51:32;21.30;99.90
7317;DHT22;3699;51.462;6.696;2022-08-05T09:54:00;21.60;99.90
7317;DHT22;3699;51.462;6.696;2022-08-05T09:56:30;21.90;99.90
7317;DHT22;3699;51.462;6.696;2022-08-05T09:59:00;22.20;99.90
7317;DHT22;3699;51.462;6.696;2022-08-05T10:01:27;22.30;99.90
7317;DHT22;3699;51.462;6.696;2022-08-05T10:03:55;22.50;99.90
7317;DHT22;3699;51.462;6.696;2022-08-05T10:06:24;22.60;99.90
7317;DHT22;3699;51.462;6.696;2022-08-05T10:08:53;22.90;99.90
7317;DHT22;3699;51.462;6.696;2022-08-05T10:11:20;23.00;99.90
7317;DHT22;3699;51.462;6.696;2022-08-05T10:13:47;23.20;99.90
7317;DHT22;3699;51.462;6.696;2022-08-05T10:16:29;23.30;99.90
7317;DHT22;3699;51.462;6.696;2022-08-05T10:18:57;23.30;99.90
7317;DHT22;3699;51.462;6.696;2022-08-05T10:21:24;23.30;99.90
7317;DHT22;3699;51.462;6.696;2022-08-05T10:23:54;23.50;99.90
7317;DHT22;3699;51.462;6.696;2022-08-05T10:26:20;23.60;99.90
7317;DHT22;3699;51.462;6.696;2022-08-05T10:28:48;23.70;99.90
7317;DHT22;3699;51.462;6.696;2022-08-05T10:31:16;23.80;99.90
7317;DHT22;3699;51.462;6.696;2022-08-05T10:33:43;23.90;99.90
7317;DHT22;3699;51.462;6.696;2022-08-05T10:36:10;24.00;99.90
7317;DHT22;3699;51.462;6.696;2022-08-05T10:38:40;24.20;99.90
7317;DHT22;3699;51.462;6.696;2022-08-05T10:41:22;24.50;99.90
7317;DHT22;3699;51.462;6.696;2022-08-05T10:43:57;27.20;99.90
7317;DHT22;3699;51.462;6.696;2022-08-05T10:46:42;24.70;99.90
7317;DHT22;3699;51.462;6.696;2022-08-05T10:49:12;24.80;99.90
7317;DHT22;3699;51.462;6.696;2022-08-05T10:51:43;24.70;99.90
7317;DHT22;3699;51.462;6.696;2022-08-05T10:54:10;24.60;99.90
7317;DHT22;3699;51.462;6.696;2022-08-05T10:56:45;24.60;99.90
7317;DHT22;3699;51.462;6.696;2022-08-05T10:59:16;24.90;99.90
7317;DHT22;3699;51.462;6.696;2022-08-05T11:01:43;24.90;99.90
7317;DHT22;3699;51.462;6.696;2022-08-05T11:04:11;24.90;99.90
7317;DHT22;3699;51.462;6.696;2022-08-05T11:07:05;24.90;99.90
7317;DHT22;3699;51.462;6.696;2022-08-05T11:09:37;24.90;99.90
7317;DHT22;3699;51.462;6.696;2022-08-05T11:12:42;24.80;99.90
7317;DHT22;3699;51.462;6.696;2022-08-05T11:15:16;24.70;99.90
7317;DHT22;3699;51.462;6.696;2022-08-05T11:17:44;24.70;99.90
7317;DHT22;3699;51.462;6.696;2022-08-05T11:20:30;24.70;99.90
7317;DHT22;3699;51.462;6.696;2022-08-05T11:22:57;24.70;99.90
7317;DHT22;3699;51.462;6.696;2022-08-05T11:25:32;24.80;99.90
7317;DHT22;3699;51.462;6.696;2022-08-05T11:31:28;25.00;99.90
7317;DHT22;3699;51.462;6.696;2022-08-05T11:33:59;25.10;99.90
7317;DHT22;3699;51.462;6.696;2022-08-05T11:36:44;25.20;99.90
7317;DHT22;3699;51.462;6.696;2022-08-05T11:39:12;25.20;99.90
7317;DHT22;3699;51.462;6.696;2022-08-05T11:41:40;25.30;99.90
7317;DHT22;3699;51.462;6.696;2022-08-05T11:44:08;25.50;99.90
7317;DHT22;3699;51.462;6.696;2022-08-05T11:46:41;25.60;99.90
7317;DHT22;3699;51.462;6.696;2022-08-05T11:49:11;25.80;99.90
7317;DHT22;3699;51.462;6.696;2022-08-05T11:51:40;26.00;99.90
7317;DHT22;3699;51.462;6.696;2022-08-05T11:54:10;26.20;99.90
7317;DHT22;3699;51.462;6.696;2022-08-05T11:56:44;26.20;99.90
7317;DHT22;3699;51.462;6.696;2022-08-05T11:59:13;26.20;99.90
7317;DHT22;3699;51.462;6.696;2022-08-05T12:01:53;26.20;99.90
7317;DHT22;3699;51.462;6.696;2022-08-05T12:04:22;26.30;99.90
7317;DHT22;3699;51.462;6.696;2022-08-05T12:06:49;26.30;99.90
7317;DHT22;3699;51.462;6.696;2022-08-05T12:09:18;26.30;99.90
7317;DHT22;3699;51.462;6.696;2022-08-05T12:11:46;26.30;99.90
7317;DHT22;3699;51.462;6.696;2022-08-05T12:14:13;26.40;99.90
7317;DHT22;3699;51.462;6.696;2022-08-05T12:16:41;26.30;99.90
7317;DHT22;3699;51.462;6.696;2022-08-05T12:19:10;26.00;99.90
7317;DHT22;3699;51.462;6.696;2022-08-05T12:21:43;25.60;99.90
7317;DHT22;3699;51.462;6.696;2022-08-05T12:24:12;25.30;99.90
7317;DHT22;3699;51.462;6.696;2022-08-05T12:26:40;25.10;99.90
7317;DHT22;3699;51.462;6.696;2022-08-05T12:29:09;24.90;99.90
7317;DHT22;3699;51.462;6.696;2022-08-05T12:31:38;24.60;99.90
7317;DHT22;3699;51.462;6.696;2022-08-05T12:34:06;24.60;99.90
7317;DHT22;3699;51.462;6.696;2022-08-05T12:36:35;24.40;99.90
7317;DHT22;3699;51.462;6.696;2022-08-05T12:39:04;24.40;99.90
7317;DHT22;3699;51.462;6.696;2022-08-05T12:41:32;24.30;99.90
7317;DHT22;3699;51.462;6.696;2022-08-05T12:44:02;24.20;99.90
7317;DHT22;3699;51.462;6.696;2022-08-05T12:46:31;24.20;99.90
7317;DHT22;3699;51.462;6.696;2022-08-05T12:48:59;24.10;99.90
7317;DHT22;3699;51.462;6.696;2022-08-05T12:51:27;24.00;99.90
7317;DHT22;3699;51.462;6.696;2022-08-05T12:54:01;24.00;99.90
7317;DHT22;3699;51.462;6.696;2022-08-05T12:56:29;23.90;99.90
7317;DHT22;3699;51.462;6.696;2022-08-05T12:59:16;23.90;99.90
7317;DHT22;3699;51.462;6.696;2022-08-05T13:01:45;23.80;99.90
7317;DHT22;3699;51.462;6.696;2022-08-05T13:04:18;23.80;99.90
7317;DHT22;3699;51.462;6.696;2022-08-05T13:06:45;23.80;99.90
7317;DHT22;3699;51.462;6.696;2022-08-05T13:09:13;23.80;99.90
7317;DHT22;3699;51.462;6.696;2022-08-05T13:11:41;23.90;99.90
7317;DHT22;3699;51.462;6.696;2022-08-05T13:14:18;23.90;99.90
7317;DHT22;3699;51.462;6.696;2022-08-05T13:16:51;24.00;99.90
7317;DHT22;3699;51.462;6.696;2022-08-05T13:19:23;23.90;99.90
7317;DHT22;3699;51.462;6.696;2022-08-05T13:21:51;23.90;99.90
7317;DHT22;3699;51.462;6.696;2022-08-05T13:24:20;23.90;99.90
7317;DHT22;3699;51.462;6.696;2022-08-05T13:26:48;23.90;99.90
7317;DHT22;3699;51.462;6.696;2022-08-05T13:29:17;23.80;99.90
7317;DHT22;3699;51.462;6.696;2022-08-05T13:31:44;23.70;99.90
7317;DHT22;3699;51.462;6.696;2022-08-05T13:34:11;23.70;99.90
7317;DHT22;3699;51.462;6.696;2022-08-05T13:36:38;23.60;99.90
7317;DHT22;3699;51.462;6.696;2022-08-05T13:39:07;23.60;99.90
7317;DHT22;3699;51.462;6.696;2022-08-05T13:41:35;23.50;99.90
7317;DHT22;3699;51.462;6.696;2022-08-05T13:44:02;23.50;99.90
7317;DHT22;3699;51.462;6.696;2022-08-05T13:46:29;23.50;99.90
7317;DHT22;3699;51.462;6.696;2022-08-05T13:48:57;23.60;99.90
7317;DHT22;3699;51.462;6.696;2022-08-05T13:51:28;23.60;99.90
7317;DHT22;3699;51.462;6.696;2022-08-05T13:53:55;23.70;99.90
7317;DHT22;3699;51.462;6.696;2022-08-05T13:56:22;23.80;99.90
7317;DHT22;3699;51.462;6.696;2022-08-05T13:58:50;23.80;99.90
7317;DHT22;3699;51.462;6.696;2022-08-05T14:01:17;24.10;99.90
7317;DHT22;3699;51.462;6.696;2022-08-05T14:03:44;24.30;99.90
7317;DHT22;3699;51.462;6.696;2022-08-05T14:06:31;24.60;99.90
7317;DHT22;3699;51.462;6.696;2022-08-05T14:08:57;25.10;99.90
7317;DHT22;3699;51.462;6.696;2022-08-05T14:11:24;25.30;96.30
7317;DHT22;3699;51.462;6.696;2022-08-05T14:13:52;25.40;96.50
7317;DHT22;3699;51.462;6.696;2022-08-05T14:16:19;25.20;92.10
7317;DHT22;3699;51.462;6.696;2022-08-05T14:18:46;25.10;92.00
7317;DHT22;3699;51.462;6.696;2022-08-05T14:21:13;24.90;89.00
7317;DHT22;3699;51.462;6.696;2022-08-05T14:23:39;24.60;79.90
7317;DHT22;3699;51.462;6.696;2022-08-05T14:26:06;24.30;80.20
7317;DHT22;3699;51.462;6.696;2022-08-05T14:28:33;24.30;81.10
7317;DHT22;3699;51.462;6.696;2022-08-05T14:31:01;24.20;84.60
7317;DHT22;3699;51.462;6.696;2022-08-05T14:33:28;24.20;74.70
7317;DHT22;3699;51.462;6.696;2022-08-05T14:35:56;24.30;73.70
7317;DHT22;3699;51.462;6.696;2022-08-05T14:38:22;24.30;68.30
7317;DHT22;3699;51.462;6.696;2022-08-05T14:40:49;24.40;69.50
7317;DHT22;3699;51.462;6.696;2022-08-05T14:43:16;24.40;64.00
7317;DHT22;3699;51.462;6.696;2022-08-05T14:45:43;24.50;58.80
7317;DHT22;3699;51.462;6.696;2022-08-05T14:48:11;24.40;57.70
7317;DHT22;3699;51.462;6.696;2022-08-05T14:50:38;24.50;59.20
7317;DHT22;3699;51.462;6.696;2022-08-05T14:53:05;24.50;59.40
7317;DHT22;3699;51.462;6.696;2022-08-05T14:55:31;24.40;57.10
7317;DHT22;3699;51.462;6.696;2022-08-05T14:57:58;24.30;56.70
7317;DHT22;3699;51.462;6.696;2022-08-05T15:00:25;24.00;57.50
7317;DHT22;3699;51.462;6.696;2022-08-05T15:02:51;24.00;58.30
7317;DHT22;3699;51.462;6.696;2022-08-05T15:05:19;24.00;58.50
7317;DHT22;3699;51.462;6.696;2022-08-05T15:07:46;24.00;59.20
7317;DHT22;3699;51.462;6.696;2022-08-05T15:10:13;24.00;59.10
7317;DHT22;3699;51.462;6.696;2022-08-05T15:12:39;24.00;56.80
7317;DHT22;3699;51.462;6.696;2022-08-05T15:15:07;24.20;58.90
7317;DHT22;3699;51.462;6.696;2022-08-05T15:17:41;24.30;56.20
7317;DHT22;3699;51.462;6.696;2022-08-05T15:20:09;24.40;55.70
7317;DHT22;3699;51.462;6.696;2022-08-05T15:22:38;24.40;56.40
7317;DHT22;3699;51.462;6.696;2022-08-05T15:25:06;24.50;54.30
7317;DHT22;3699;51.462;6.696;2022-08-05T15:27:33;24.40;54.40
7317;DHT22;3699;51.462;6.696;2022-08-05T15:29:59;24.40;52.80
7317;DHT22;3699;51.462;6.696;2022-08-05T15:32:26;24.20;52.50
7317;DHT22;3699;51.462;6.696;2022-08-05T15:34:53;24.10;52.40
7317;DHT22;3699;51.462;6.696;2022-08-05T15:37:20;23.90;54.00
7317;DHT22;3699;51.462;6.696;2022-08-05T15:39:48;23.70;55.10
7317;DHT22;3699;51.462;6.696;2022-08-05T15:42:15;23.70;55.70
7317;DHT22;3699;51.462;6.696;2022-08-05T15:44:41;23.70;54.90
7317;DHT22;3699;51.462;6.696;2022-08-05T15:47:09;23.60;54.30
7317;DHT22;3699;51.462;6.696;2022-08-05T15:49:36;23.60;54.50
7317;DHT22;3699;51.462;6.696;2022-08-05T15:52:03;23.70;54.60
7317;DHT22;3699;51.462;6.696;2022-08-05T15:54:30;23.90;54.50
7317;DHT22;3699;51.462;6.696;2022-08-05T15:56:58;24.10;54.00
7317;DHT22;3699;51.462;6.696;2022-08-05T15:59:25;24.20;54.40
7317;DHT22;3699;51.462;6.696;2022-08-05T16:01:51;24.40;54.30
7317;DHT22;3699;51.462;6.696;2022-08-05T16:04:18;24.50;52.30
7317;DHT22;3699;51.462;6.696;2022-08-05T16:06:45;24.50;51.20
7317;DHT22;3699;51.462;6.696;2022-08-05T16:09:11;24.60;56.90
7317;DHT22;3699;51.462;6.696;2022-08-05T16:11:38;24.70;57.00
7317;DHT22;3699;51.462;6.696;2022-08-05T16:14:06;24.80;53.10
7317;DHT22;3699;51.462;6.696;2022-08-05T16:16:33;24.90;55.90